Time;durP1;ratioP1;P1;durP2;ratioP2;P2;SDS_P1;SDS_P2;PMS_P1;PMS_P2;Temp;Humidity;BMP_temperature;BMP_pressure;BME280_temperature;BME280_humidity;BME280_pressure;Samples;Min_cycle;Max_cycle;Signal;HPM_P1;HPM_P2
2023/02/22 00:01:17;;;;;;;147.25;58.70;;;7.80;99.90;;;7.74;100.00;101409.09;5031777;28;20124;-72
2023/02/22 00:03:51;;;;;;;143.90;55.75;;;7.60;99.90;;;7.61;100.00;101407.16;5032106;28;20049;-71
2023/02/22 00:06:23;;;;;;;149.90;61.10;;;7.50;99.90;;;7.66;100.00;101397.59;5031985;28;20046;-71
2023/02/22 00:08:54;;;;;;;142.82;58.97;;;7.50;99.90;;;7.72;100.00;101405.59;5032063;28;20052;-71
2023/02/22 00:11:22;;;;;;;;;;;7.50;99.90;;;7.87;100.00;101400.56;5032524;28;20095;-71
2023/02/22 00:13:51;;;;;;;151.18;58.45;;;7.70;99.90;;;7.75;100.00;101376.66;5035219;28;19948;-71
2023/02/22 00:16:22;;;;;;;140.20;56.85;;;7.80;99.90;;;7.70;100.00;101403.78;5035541;28;20045;-71
2023/02/22 00:18:52;;;;;;;130.60;55.70;;;7.60;99.90;;;7.68;100.00;101400.25;5035340;28;20512;-71
2023/02/22 00:21:21;;;;;;;133.73;54.83;;;7.60;99.90;;;7.97;100.00;101397.19;5034035;28;20076;-72
2023/02/22 00:23:49;;;;;;;134.65;55.10;;;7.70;99.90;;;7.87;100.00;101403.19;5034037;28;20063;-71
2023/02/22 00:26:23;;;;;;;132.13;54.78;;;7.80;99.90;;;7.98;100.00;101396.31;5035098;28;20508;-71
2023/02/22 00:28:53;;;;;;;130.32;54.22;;;7.90;99.90;;;8.03;100.00;101397.25;5035242;28;20128;-72
2023/02/22 00:31:24;;;;;;;142.00;59.15;;;8.00;99.90;;;7.98;100.00;101408.59;5035124;28;20048;-72
2023/02/22 00:33:53;;;;;;;151.25;63.53;;;7.90;99.90;;;8.14;100.00;101395.69;5035130;28;20378;-71
2023/02/22 00:36:22;;;;;;;131.82;57.90;;;8.00;99.90;;;8.08;100.00;101411.41;5034951;28;20054;-71
2023/02/22 00:38:50;;;;;;;122.53;54.85;;;8.00;99.90;;;7.92;100.00;101392.69;5034858;28;20046;-71
2023/02/22 00:41:20;;;;;;;117.43;52.00;;;7.90;99.90;;;7.98;100.00;101390.16;5035094;28;20050;-72
2023/02/22 00:43:50;;;;;;;125.72;53.92;;;7.90;99.90;;;8.04;100.00;101385.88;5033714;28;20049;-72
2023/02/22 00:46:19;;;;;;;121.43;52.10;;;8.00;99.90;;;8.00;100.00;101398.97;5034886;28;20120;-72
2023/02/22 00:48:48;;;;;;;116.82;53.70;;;8.00;99.90;;;8.07;100.00;101393.81;5034853;28;20049;-72
2023/02/22 00:51:18;;;;;;;121.20;54.80;;;8.00;99.90;;;8.13;100.00;101391.25;5034692;28;20080;-72
2023/02/22 00:53:46;;;;;;;120.28;54.13;;;8.10;99.90;;;8.01;100.00;101395.50;5034669;28;20045;-71
2023/02/22 00:56:14;;;;;;;117.57;51.67;;;8.00;99.90;;;7.89;100.00;101393.56;5033479;28;20442;-71
2023/02/22 00:58:44;;;;;;;131.63;60.53;;;7.90;99.90;;;7.90;100.00;101378.63;5034636;28;20144;-71
2023/02/22 01:01:12;;;;;;;116.70;55.17;;;7.90;99.90;;;7.76;100.00;101385.47;5034917;28;20045;-71
2023/02/22 01:03:41;;;;;;;107.20;51.22;;;7.80;99.90;;;7.68;100.00;101398.50;5033367;28;20542;-72
2023/02/22 01:06:10;;;;;;;133.13;55.25;;;7.70;99.90;;;7.49;100.00;101398.19;5033296;28;20045;-72
2023/02/22 01:08:38;;;;;;;150.75;65.80;;;7.50;99.90;;;7.61;100.00;101388.72;5033645;28;20049;-72
2023/02/22 01:11:07;;;;;;;110.53;52.53;;;7.50;99.90;;;7.59;100.00;101385.19;5034366;28;20045;-72
2023/02/22 01:13:35;;;;;;;109.80;50.80;;;7.50;99.90;;;7.63;100.00;101384.38;5034299;28;20051;-72
2023/02/22 01:16:07;;;;;;;108.88;53.38;;;7.50;99.90;;;7.39;100.00;101373.47;5034275;28;20111;-72
2023/02/22 01:18:35;;;;;;;165.95;69.30;;;7.50;99.90;;;7.40;100.00;101374.31;5034191;28;20562;-71
2023/02/22 01:21:05;;;;;;;123.85;55.80;;;7.40;99.90;;;7.35;100.00;101376.91;5034448;28;20072;-72
2023/02/22 01:23:33;;;;;;;126.80;57.85;;;7.30;99.90;;;7.33;100.00;101378.63;5033464;28;20061;-72
2023/02/22 01:26:03;;;;;;;140.63;60.67;;;7.30;99.90;;;7.39;100.00;101369.94;5034192;28;20451;-72
2023/02/22 01:28:31;;;;;;;158.57;68.35;;;7.30;99.90;;;7.42;100.00;101368.22;5033931;28;20099;-71
2023/02/22 01:31:00;;;;;;;122.20;56.35;;;7.30;99.90;;;7.34;100.00;101363.72;5033857;28;20072;-71
2023/02/22 01:33:30;;;;;;;122.95;58.03;;;7.20;99.90;;;7.22;100.00;101328.44;5032615;28;20103;-72
2023/02/22 01:35:59;;;;;;;116.70;55.33;;;7.30;99.90;;;7.25;100.00;101359.19;5034046;28;20103;-71
2023/02/22 01:38:28;;;;;;;141.25;62.63;;;7.10;99.90;;;7.29;100.00;101356.63;5032481;28;20041;-72
2023/02/22 01:40:56;;;;;;;132.35;60.63;;;7.20;99.90;;;7.44;100.00;101353.34;5033780;28;20045;-72
2023/02/22 01:43:28;;;;;;;139.65;63.50;;;7.30;99.90;;;7.31;100.00;101348.78;5033756;28;20049;-72
2023/02/22 01:46:01;;;;;;;131.13;60.83;;;7.30;99.90;;;7.44;100.00;101339.31;5032608;28;20049;-72
2023/02/22 01:48:45;;;;;;;136.63;62.20;;;7.30;99.90;;;7.24;100.00;101342.50;5032570;28;20045;-72
2023/02/22 01:51:17;;;;;;;141.68;62.33;;;7.20;99.90;;;7.03;100.00;101343.88;5033707;28;20087;-72
2023/02/22 01:53:51;;;;;;;127.03;59.97;;;6.90;99.90;;;7.10;100.00;101340.53;5032343;28;20050;-72
2023/02/22 01:56:22;;;;;;;132.02;59.75;;;6.90;99.90;;;7.23;100.00;101342.50;5033515;28;20504;-71
2023/02/22 01:58:59;;;;;;;137.63;61.10;;;7.10;99.90;;;7.18;100.00;101344.16;5032372;28;20045;-71
2023/02/22 02:01:28;;;;;;;140.50;64.35;;;7.00;99.90;;;7.43;100.00;101330.56;5032390;28;20157;-72
2023/02/22 02:04:04;;;;;;;152.25;66.75;;;7.30;99.90;;;7.53;100.00;101329.81;5032127;28;20128;-72
2023/02/22 02:06:35;;;;;;;156.07;68.05;;;7.40;99.90;;;7.62;100.00;101332.59;5032296;28;20045;-72
2023/02/22 02:09:10;;;;;;;158.20;68.25;;;7.50;99.90;;;7.59;100.00;101329.91;5032505;28;20135;-72
2023/02/22 02:11:40;;;;;;;145.02;65.97;;;7.50;99.90;;;7.66;100.00;101321.25;5033370;28;20045;-71
2023/02/22 02:14:10;;;;;;;150.45;68.85;;;7.50;99.90;;;7.76;100.00;101323.13;5033386;28;20579;-71
2023/02/22 02:16:41;;;;;;;163.15;71.30;;;7.60;99.90;;;7.72;100.00;101317.81;5033086;28;20046;-71
2023/02/22 02:19:21;;;;;;;150.35;69.25;;;7.60;99.90;;;7.84;100.00;101315.34;5033197;28;20053;-71
2023/02/22 02:22:18;;;;;;;148.23;67.30;;;7.70;99.90;;;7.67;100.00;101315.09;5033188;28;20041;-72
2023/02/22 02:25:44;;;;;;;162.25;71.75;;;7.60;99.90;;;7.49;100.00;101306.94;5033010;28;20049;-72
2023/02/22 02:28:54;;;;;;;169.30;75.78;;;7.50;99.90;;;7.53;100.00;101308.75;5031782;28;20140;-72
2023/02/22 02:32:12;;;;;;;173.80;72.00;;;7.50;99.90;;;7.10;100.00;101298.44;5031592;28;20084;-72
2023/02/22 02:34:50;;;;;;;192.27;78.40;;;7.20;99.90;;;7.16;100.00;101293.28;5031226;28;20099;-72
2023/02/22 02:37:28;;;;;;;168.45;74.55;;;7.00;99.90;;;7.32;100.00;101290.91;5031736;28;20097;-71
2023/02/22 02:40:10;;;;;;;155.75;66.78;;;7.20;99.90;;;7.22;100.00;101286.34;5032993;28;20045;-71
2023/02/22 02:42:47;;;;;;;158.05;66.10;;;7.10;99.90;;;6.82;100.00;101272.53;5032934;28;20045;-71
2023/02/22 02:45:20;;;;;;;150.82;66.47;;;6.80;99.90;;;6.73;100.00;101280.25;5032803;28;20099;-71
2023/02/22 02:47:57;;;;;;;146.60;64.93;;;6.60;99.90;;;6.97;100.00;101278.03;5031570;28;20077;-71
2023/02/22 02:50:31;;;;;;;145.48;61.80;;;6.80;99.90;;;6.66;100.00;101267.88;5032604;28;20519;-71
2023/02/22 02:53:05;;;;;;;138.25;61.25;;;6.60;99.90;;;6.71;100.00;101261.84;5032655;28;20496;-71
2023/02/22 02:55:36;;;;;;;152.85;61.20;;;6.50;99.90;;;6.70;100.00;101267.03;5032812;28;20494;-72
2023/02/22 02:58:05;;;;;;;144.00;61.55;;;6.50;99.90;;;6.67;100.00;101261.75;5032620;28;20072;-71
2023/02/22 03:00:39;;;;;;;164.40;65.03;;;6.50;99.90;;;6.48;100.00;101257.03;5032359;28;20072;-71
2023/02/22 03:03:42;;;;;;;178.02;69.15;;;6.40;99.90;;;6.61;100.00;101253.75;5031422;28;20053;-71
2023/02/22 03:06:56;;;;;;;176.15;67.68;;;6.40;99.90;;;6.67;100.00;101253.88;5031270;28;20053;-72
2023/02/22 03:09:41;;;;;;;214.15;78.65;;;6.50;99.90;;;6.80;100.00;101247.94;5011915;28;20054;-72
2023/02/22 03:12:26;;;;;;;178.00;67.72;;;6.50;99.90;;;6.73;100.00;101209.28;5032452;28;20127;-71
2023/02/22 03:15:08;;;;;;;160.02;65.00;;;6.70;99.90;;;6.62;100.00;101238.00;5031298;28;20099;-71
2023/02/22 03:17:48;;;;;;;170.73;66.72;;;6.60;99.90;;;6.61;100.00;101230.09;5031245;28;20404;-71
2023/02/22 03:20:30;;;;;;;166.33;65.90;;;6.60;99.90;;;6.40;100.00;101222.75;5032462;28;20099;-71
2023/02/22 03:23:08;;;;;;;171.40;67.95;;;6.30;99.90;;;6.23;100.00;101216.31;5031227;28;20049;-71
2023/02/22 03:25:43;;;;;;;272.52;83.22;;;6.20;99.90;;;6.28;100.00;101209.38;5030956;28;20056;-72
2023/02/22 03:28:17;;;;;;;179.35;68.55;;;6.20;99.90;;;6.33;100.00;101205.97;5031306;28;20049;-72
2023/02/22 03:30:52;;;;;;;158.27;64.80;;;6.10;99.90;;;6.13;100.00;101183.72;5031114;28;20053;-72
2023/02/22 03:33:32;;;;;;;152.15;62.60;;;6.20;99.90;;;6.01;100.00;101199.25;5032389;28;20084;-72
2023/02/22 03:36:10;;;;;;;174.50;65.47;;;5.90;99.90;;;5.97;100.00;101213.16;5031148;28;20056;-72
2023/02/22 03:38:41;;;;;;;221.13;69.57;;;5.80;99.90;;;5.90;100.00;101206.03;5031079;28;20042;-72
2023/02/22 03:41:18;;;;;;;169.70;63.40;;;5.80;99.90;;;6.08;100.00;101206.38;5031194;28;20053;-71
2023/02/22 03:43:51;;;;;;;156.02;63.63;;;5.80;99.90;;;6.01;100.00;101199.25;5030812;28;20058;-72
2023/02/22 03:46:19;;;;;;;150.57;63.33;;;5.90;99.90;;;6.17;100.00;101195.19;5031995;28;20033;-72
2023/02/22 03:48:56;;;;;;;168.45;64.60;;;6.00;99.90;;;6.18;100.00;101187.31;5034298;28;20103;-72
2023/02/22 03:51:26;;;;;;;167.10;65.65;;;6.00;99.90;;;6.14;100.00;101184.59;5035187;28;20091;-72
2023/02/22 03:53:59;;;;;;;165.10;64.57;;;6.10;99.90;;;6.04;100.00;101178.28;5034947;28;20053;-72
2023/02/22 03:56:46;;;;;;;183.75;66.68;;;6.00;99.90;;;5.77;100.00;101169.84;5034437;28;20076;-72
2023/02/22 03:59:15;;;;;;;177.25;67.32;;;5.70;99.90;;;5.68;100.00;101166.16;5034620;28;20049;-72
2023/02/22 04:01:44;;;;;;;192.50;71.82;;;5.60;99.90;;;5.68;100.00;101164.44;5034560;28;20053;-71
2023/02/22 04:04:12;;;;;;;182.48;71.75;;;5.60;99.90;;;5.77;100.00;101166.38;5034366;28;20091;-72
2023/02/22 04:06:43;;;;;;;182.45;72.82;;;5.70;99.90;;;5.80;100.00;101155.91;5034305;28;20046;-71
2023/02/22 04:09:12;;;;;;;192.80;71.50;;;5.70;99.90;;;5.82;100.00;101164.72;5034245;28;20041;-71
2023/02/22 04:11:40;;;;;;;278.25;74.22;;;5.70;99.90;;;5.55;100.00;101149.31;5034427;28;20128;-71
2023/02/22 04:14:09;;;;;;;256.70;70.13;;;5.60;99.90;;;5.55;100.00;101156.28;5035654;28;20056;-72
2023/02/22 04:16:37;;;;;;;252.73;70.28;;;5.50;99.90;;;5.62;100.00;101166.94;5034224;28;20053;-72
2023/02/22 04:19:09;;;;;;;205.35;66.90;;;5.50;99.90;;;5.63;100.00;101150.34;5034233;28;20049;-71
2023/02/22 04:21:39;;;;;;;261.80;70.88;;;5.50;99.90;;;5.65;100.00;101151.28;5034079;28;20065;-72
2023/02/22 04:24:15;;;;;;;243.02;71.30;;;5.60;99.90;;;5.64;100.00;101151.22;5034001;28;20408;-72
2023/02/22 04:26:44;;;;;;;234.45;69.68;;;5.60;99.90;;;5.65;100.00;101139.88;5034199;28;20045;-72
2023/02/22 04:29:12;;;;;;;231.40;66.40;;;5.50;99.90;;;5.64;100.00;101153.84;5034058;28;20049;-71
2023/02/22 04:31:44;;;;;;;240.25;63.70;;;5.50;99.90;;;5.72;100.00;101147.00;5033875;28;20481;-72
2023/02/22 04:34:12;;;;;;;193.88;60.75;;;5.60;99.90;;;5.72;100.00;101153.16;5033813;28;20049;-71
2023/02/22 04:36:43;;;;;;;304.50;63.70;;;5.60;99.90;;;5.53;100.00;101143.16;5033905;28;20073;-72
2023/02/22 04:39:14;;;;;;;218.57;62.90;;;5.50;99.90;;;5.76;100.00;101149.72;5033741;28;20045;-72
2023/02/22 04:41:44;;;;;;;359.77;65.70;;;5.60;99.90;;;5.45;100.00;101105.38;5033874;28;20073;-72
2023/02/22 04:44:13;;;;;;;222.85;64.80;;;5.60;99.90;;;5.80;100.00;101129.66;5033672;28;20061;-72
2023/02/22 04:46:41;;;;;;;241.73;65.03;;;5.60;99.90;;;5.65;100.00;101124.13;5033549;28;20076;-73
2023/02/22 04:49:13;;;;;;;249.45;63.05;;;5.60;99.90;;;5.78;100.00;101132.28;5033488;28;20057;-72
2023/02/22 04:51:43;;;;;;;265.35;65.88;;;5.70;99.90;;;5.83;100.00;101128.03;5033681;28;20518;-72
2023/02/22 04:54:16;;;;;;;200.80;63.30;;;5.70;99.90;;;5.83;100.00;101134.97;5033542;28;20087;-72
2023/02/22 04:56:47;;;;;;;198.23;60.90;;;5.70;99.90;;;5.92;100.00;101122.06;5034712;28;20140;-72
2023/02/22 04:59:15;;;;;;;224.65;60.15;;;5.80;99.90;;;5.97;100.00;101123.03;5032996;28;20519;-72
2023/02/22 05:01:46;;;;;;;237.90;60.33;;;5.90;99.90;;;6.15;100.00;101139.13;5033496;28;20037;-72
2023/02/22 05:04:15;;;;;;;291.13;62.70;;;6.00;99.90;;;6.22;100.00;101128.75;5034723;28;20121;-72
2023/02/22 05:06:43;;;;;;;268.83;65.20;;;6.10;99.90;;;6.31;100.00;101143.75;5034442;28;20128;-72
2023/02/22 05:09:11;;;;;;;266.88;61.63;;;6.20;99.90;;;6.18;100.00;101131.28;5034398;28;20037;-72
2023/02/22 05:11:41;;;;;;;235.25;64.15;;;6.10;99.90;;;6.19;100.00;101126.03;5034422;28;20493;-72
2023/02/22 05:14:10;;;;;;;239.07;61.72;;;6.10;99.90;;;6.20;100.00;101113.81;5032944;28;20065;-72
2023/02/22 05:16:38;;;;;;;237.00;61.30;;;6.10;99.90;;;6.16;100.00;101102.38;5033164;28;20046;-72
2023/02/22 05:19:06;;;;;;;190.13;58.40;;;6.10;99.90;;;6.21;100.00;101095.44;5034333;28;20039;-72
2023/02/22 05:21:35;;;;;;;159.77;55.00;;;6.20;99.90;;;6.41;100.00;101116.78;5034100;28;20038;-72
2023/02/22 05:24:04;;;;;;;204.23;56.80;;;6.30;99.90;;;6.29;100.00;101113.97;5032830;28;20543;-72
2023/02/22 05:26:32;;;;;;;140.52;55.75;;;6.20;99.90;;;6.42;100.00;101115.94;5034037;28;20042;-72
2023/02/22 05:29:02;;;;;;;232.15;56.03;;;6.30;99.90;;;6.41;100.00;101122.03;5034467;28;20050;-72
2023/02/22 05:31:30;;;;;;;135.70;56.88;;;6.30;99.90;;;6.56;100.00;101116.16;5032735;28;20052;-72
2023/02/22 05:33:59;;;;;;;175.30;55.38;;;6.40;99.90;;;6.48;100.00;101100.28;5034325;28;20041;-72
2023/02/22 05:36:27;;;;;;;245.88;56.90;;;6.40;99.90;;;6.48;100.00;101099.38;5033800;28;20041;-72
2023/02/22 05:38:56;;;;;;;229.77;55.25;;;6.40;99.90;;;6.45;100.00;101122.97;5032426;28;20052;-72
2023/02/22 05:41:24;;;;;;;445.70;60.45;;;6.40;99.90;;;6.44;100.00;101089.69;5033737;28;20132;-73
2023/02/22 05:43:52;;;;;;;169.88;48.40;;;6.40;99.90;;;6.23;100.00;101059.59;5033652;28;20041;-72
2023/02/22 05:46:22;;;;;;;139.05;48.20;;;6.40;99.90;;;6.10;100.00;101073.38;5033766;28;20334;-72
2023/02/22 05:48:51;;;;;;;264.25;51.40;;;6.10;99.90;;;6.10;100.00;101072.50;5033779;28;20136;-72
2023/02/22 05:51:19;;;;;;;193.70;49.30;;;6.00;99.90;;;5.91;100.00;101062.53;5033853;28;20045;-73
2023/02/22 05:53:50;;;;;;;178.75;48.53;;;5.80;99.90;;;5.85;100.00;101063.31;5033540;28;20038;-72
2023/02/22 05:56:24;;;;;;;292.25;53.90;;;5.80;99.90;;;5.95;100.00;101046.88;5033618;28;20460;-72
2023/02/22 05:58:52;;;;;;;181.23;51.17;;;5.80;99.90;;;5.85;100.00;101044.94;5033701;28;20045;-72
2023/02/22 06:01:23;;;;;;;261.80;54.53;;;5.80;99.90;;;5.73;100.00;101057.81;5033491;28;20045;-72
2023/02/22 06:03:52;;;;;;;311.10;56.55;;;5.70;99.90;;;5.79;100.00;101041.31;5033647;28;20453;-72
2023/02/22 06:06:21;;;;;;;164.75;52.13;;;5.70;99.90;;;5.78;100.00;101023.78;5033293;28;20060;-72
2023/02/22 06:08:50;;;;;;;184.15;51.30;;;5.80;99.90;;;5.80;100.00;101035.19;5032229;28;20140;-72
2023/02/22 06:11:19;;;;;;;182.60;52.03;;;5.70;99.90;;;5.75;100.00;101027.22;5032796;28;20053;-72
2023/02/22 06:13:51;;;;;;;150.73;50.72;;;5.60;99.90;;;5.70;100.00;101036.78;5033196;28;20408;-72
2023/02/22 06:16:22;;;;;;;166.45;52.17;;;5.60;99.90;;;5.59;100.00;101033.09;5033174;28;20108;-72
2023/02/22 06:18:51;;;;;;;126.65;49.70;;;5.60;99.90;;;5.94;100.00;101045.09;5032114;28;20364;-72
2023/02/22 06:21:19;;;;;;;151.02;50.10;;;5.80;99.90;;;6.09;100.00;101058.50;5033380;28;20052;-72
2023/02/22 06:23:47;;;;;;;160.00;51.30;;;5.90;99.90;;;6.08;100.00;101063.69;5033076;28;20441;-72
2023/02/22 06:26:16;;;;;;;130.02;48.92;;;6.00;99.90;;;6.27;100.00;101061.41;5032935;28;20044;-72
2023/02/22 06:28:46;;;;;;;119.75;48.60;;;6.10;99.90;;;6.31;100.00;101063.22;5032917;28;20072;-72
2023/02/22 06:31:14;;;;;;;124.22;50.47;;;6.10;99.90;;;6.29;100.00;101064.94;5032894;28;20083;-72
2023/02/22 06:33:45;;;;;;;145.95;50.65;;;6.20;99.90;;;6.20;100.00;101066.53;5033276;28;20116;-72
2023/02/22 06:36:13;;;;;;;155.27;51.23;;;6.10;99.90;;;6.18;100.00;101044.63;5032886;28;20397;-72
2023/02/22 06:38:41;;;;;;;184.55;53.30;;;6.20;99.90;;;6.13;100.00;101044.56;5032769;28;20654;-72
2023/02/22 06:41:10;;;;;;;199.07;55.13;;;6.00;99.90;;;5.94;100.00;101045.09;5031435;28;20504;-72
2023/02/22 06:43:38;;;;;;;137.07;57.38;;;6.00;99.90;;;6.28;100.00;101062.28;5031369;28;20046;-72
2023/02/22 06:46:10;;;;;;;136.73;54.50;;;6.10;99.90;;;6.13;100.00;101039.31;5032800;28;20099;-72
2023/02/22 06:48:39;;;;;;;119.72;52.75;;;6.20;99.90;;;6.36;100.00;101037.94;5032674;28;20042;-72
2023/02/22 06:51:10;;;;;;;129.00;54.65;;;6.30;99.90;;;6.39;100.00;101064.22;5032623;28;20480;-72
2023/02/22 06:53:39;;;;;;;125.50;53.05;;;6.30;99.90;;;6.24;100.00;101063.09;5032544;28;20212;-72
2023/02/22 06:56:07;;;;;;;115.50;50.42;;;6.20;99.90;;;6.20;100.00;101053.41;5032447;28;20041;-72
2023/02/22 06:58:36;;;;;;;100.57;47.97;;;6.10;99.90;;;6.15;100.00;101060.34;5032511;28;20056;-72
2023/02/22 07:01:06;;;;;;;105.88;46.80;;;6.10;99.90;;;6.18;100.00;101056.00;5032290;28;20060;-72
2023/02/22 07:03:36;;;;;;;;;;;6.10;99.90;;;6.15;100.00;101057.72;5033012;28;20042;-72
2023/02/22 07:06:06;;;;;;;100.70;44.70;;;6.00;99.90;;;6.18;100.00;101066.50;5032937;28;19921;-72
2023/02/22 07:08:36;;;;;;;98.60;45.17;;;6.10;99.90;;;6.14;100.00;101059.44;5032390;28;20452;-72
2023/02/22 07:11:05;;;;;;;93.18;44.30;;;6.10;99.90;;;6.05;100.00;101067.19;5032662;28;20403;-72
2023/02/22 07:13:33;;;;;;;90.72;44.97;;;6.00;99.90;;;6.22;100.00;101076.22;5031972;28;20042;-73
2023/02/22 07:16:02;;;;;;;85.03;41.58;;;6.00;99.90;;;6.28;100.00;101078.94;5032414;28;20049;-72
2023/02/22 07:18:30;;;;;;;86.93;43.85;;;6.10;99.90;;;6.36;100.00;101090.47;5032319;28;20582;-72
2023/02/22 07:20:59;;;;;;;85.28;42.00;;;6.20;99.90;;;6.08;100.00;101056.72;5032174;28;20041;-72
2023/02/22 07:23:27;;;;;;;85.13;42.53;;;6.10;99.90;;;6.21;100.00;101076.19;5035164;28;20103;-72
2023/02/22 07:25:59;;;;;;;87.57;43.85;;;6.10;99.90;;;6.29;100.00;101070.19;5036261;28;20069;-72
2023/02/22 07:28:28;;;;;;;86.70;43.70;;;6.20;99.90;;;6.30;100.00;101086.84;5036317;28;20124;-72
2023/02/22 07:30:56;;;;;;;88.70;44.22;;;6.10;99.90;;;6.27;100.00;101082.41;5036395;28;20053;-70
2023/02/22 07:33:25;;;;;;;86.95;43.97;;;6.10;99.90;;;6.24;100.00;101066.63;5036112;28;20047;-71
2023/02/22 07:35:54;;;;;;;85.53;43.90;;;6.20;99.90;;;6.57;100.00;101096.88;5036000;28;20095;-71
2023/02/22 07:38:22;;;;;;;92.22;46.38;;;6.40;99.90;;;6.43;100.00;101093.19;5036023;28;20056;-71
2023/02/22 07:40:50;;;;;;;93.78;45.72;;;6.30;99.90;;;6.44;100.00;101092.31;5036075;28;20511;-72
2023/02/22 07:43:23;;;;;;;88.25;44.75;;;6.30;99.90;;;6.44;100.00;101074.81;5036200;28;20041;-68
2023/02/22 07:45:55;;;;;;;89.25;44.50;;;6.40;99.90;;;6.29;100.00;101069.34;5034681;28;20140;-67
2023/02/22 07:48:28;;;;;;;91.68;45.08;;;6.20;99.90;;;6.08;100.00;101063.69;5035609;28;20046;-68
2023/02/22 07:50:57;;;;;;;97.65;45.47;;;6.10;99.90;;;6.13;100.00;101065.56;5034732;28;20077;-67
2023/02/22 07:53:32;;;;;;;88.88;45.42;;;6.00;99.90;;;6.22;100.00;101072.69;5035804;28;20040;-67
2023/02/22 07:56:04;;;;;;;95.53;46.60;;;6.10;99.90;;;6.08;100.00;101061.97;5034685;28;20041;-70
2023/02/22 07:58:34;;;;;;;99.03;48.03;;;6.00;99.90;;;5.86;100.00;101045.84;5036084;28;20121;-69
2023/02/22 08:01:05;;;;;;;100.10;46.47;;;5.90;99.90;;;5.93;100.00;101063.44;5035776;28;20508;-66
2023/02/22 08:03:36;;;;;;;102.07;47.20;;;5.80;99.90;;;5.23;100.00;100930.13;5035854;28;20056;-69
2023/02/22 08:06:06;;;;;;;;;;;5.90;99.90;;;6.02;100.00;101061.84;5036578;28;20515;-71
2023/02/22 08:08:36;;;;;;;97.57;46.63;;;5.90;99.90;;;6.03;100.00;101050.50;5034518;28;20371;-71
2023/02/22 08:11:05;;;;;;;95.15;44.67;;;6.00;99.90;;;6.02;100.00;101056.59;5035526;28;20458;-72
2023/02/22 08:13:36;;;;;;;93.40;45.78;;;5.90;99.90;;;5.89;100.00;101043.25;5035429;28;20432;-71
2023/02/22 08:16:05;;;;;;;90.43;44.92;;;6.00;99.90;;;6.15;100.00;101045.47;5035548;28;20045;-70
2023/02/22 08:18:34;;;;;;;85.93;43.13;;;6.00;99.90;;;6.14;100.00;101040.16;5035511;28;20038;-70
2023/02/22 08:21:02;;;;;;;87.78;41.92;;;6.00;99.90;;;6.15;100.00;101044.59;5035117;28;20463;-68
2023/02/22 08:23:31;;;;;;;80.53;40.72;;;6.10;99.90;;;6.05;100.00;101037.41;5033922;28;20067;-72
2023/02/22 08:26:08;;;;;;;81.03;41.50;;;6.00;99.90;;;6.06;100.00;101024.31;5035196;28;20072;-69
2023/02/22 08:28:38;;;;;;;83.88;43.25;;;6.00;99.90;;;6.24;100.00;101028.97;5034221;28;20140;-72
2023/02/22 08:31:07;;;;;;;83.13;41.90;;;6.10;99.90;;;6.25;100.00;101034.22;5034887;28;20065;-69
2023/02/22 08:33:36;;;;;;;87.77;42.93;;;6.10;99.90;;;6.49;100.00;101017.94;5034603;28;20037;-70
2023/02/22 08:36:05;;;;;;;81.22;41.08;;;6.30;99.90;;;5.87;100.00;100917.25;5034621;28;20292;-70
2023/02/22 08:38:34;;;;;;;80.93;39.47;;;6.30;99.90;;;6.49;100.00;101014.44;5034421;28;20136;-72
2023/02/22 08:41:02;;;;;;;84.18;41.78;;;6.40;99.90;;;6.56;100.00;101011.06;5034344;28;20061;-71
2023/02/22 08:43:31;;;;;;;80.00;40.85;;;6.40;99.90;;;6.72;100.00;101011.28;5034309;28;20060;-70
2023/02/22 08:46:01;;;;;;;80.53;41.05;;;6.60;99.90;;;6.58;100.00;101004.06;5033111;28;20387;-72
2023/02/22 08:48:29;;;;;;;85.25;41.72;;;6.50;99.90;;;6.62;100.00;100990.13;5034442;28;20455;-72
2023/02/22 08:50:58;;;;;;;84.78;41.42;;;6.50;99.90;;;6.68;100.00;100991.06;5034340;28;20055;-73
2023/02/22 08:53:26;;;;;;;79.50;42.25;;;6.60;99.90;;;6.78;100.00;100994.69;5034309;28;20038;-70
2023/02/22 08:55:55;;;;;;;86.30;42.75;;;6.70;99.90;;;6.54;100.00;101004.91;5034150;28;20131;-70
2023/02/22 08:58:23;;;;;;;79.72;40.83;;;6.60;99.90;;;6.69;100.00;101005.97;5034284;28;20061;-69
2023/02/22 09:00:51;;;;;;;83.85;43.13;;;6.60;99.90;;;6.86;100.00;100980.78;5034247;28;20042;-69
2023/02/22 09:03:21;;;;;;;85.30;41.88;;;6.70;99.90;;;6.96;100.00;100976.53;5033661;28;20464;-67
2023/02/22 09:05:50;;;;;;;84.20;41.30;;;6.80;99.90;;;6.95;100.00;100983.53;5033965;28;20128;-69
2023/02/22 09:08:19;;;;;;;81.97;40.78;;;6.90;99.90;;;7.00;100.00;100994.09;5032737;28;20051;-69
2023/02/22 09:10:52;;;;;;;80.28;41.80;;;6.90;99.90;;;7.06;100.00;101026.63;5034042;28;20042;-69
2023/02/22 09:13:21;;;;;;;76.10;39.08;;;6.90;99.90;;;7.07;100.00;100994.19;5033964;28;20045;-71
2023/02/22 09:15:49;;;;;;;74.95;39.80;;;6.90;99.90;;;7.13;100.00;101020.56;5033862;28;20057;-71
2023/02/22 09:18:19;;;;;;;69.05;38.75;;;7.00;99.90;;;7.18;100.00;101026.75;5034289;28;20125;-71
2023/02/22 09:20:49;;;;;;;69.75;40.90;;;7.10;99.90;;;7.36;100.00;101027.81;5032662;28;20045;-71
2023/02/22 09:23:19;;;;;;;75.72;39.38;;;7.10;99.90;;;7.43;100.00;101033.19;5033447;28;20076;-71
2023/02/22 09:25:49;;;;;;;;;;;7.30;99.90;;;7.74;100.00;101034.38;5034119;28;20045;-70
2023/02/22 09:28:18;;;;;;;67.43;37.20;;;7.50;99.90;;;7.73;100.00;101012.44;5033426;28;19921;-70
2023/02/22 09:30:47;;;;;;;65.47;38.58;;;7.70;99.90;;;8.04;100.00;101067.13;5033459;28;20063;-69
2023/02/22 09:33:18;;;;;;;66.15;37.60;;;7.90;99.90;;;8.19;100.00;101071.66;5033357;28;20131;-72
2023/02/22 09:35:50;;;;;;;61.10;35.25;;;8.00;99.90;;;8.12;100.00;101051.41;5033800;28;20049;-71
2023/02/22 09:38:23;;;;;;;58.25;35.63;;;8.10;99.90;;;8.27;100.00;101042.75;5033362;28;20443;-70
2023/02/22 09:40:57;;;;;;;60.20;35.22;;;8.20;99.90;;;8.32;100.00;101056.88;5033122;28;20128;-69
2023/02/22 09:43:39;;;;;;;59.20;35.60;;;8.20;99.90;;;8.15;100.00;101047.03;5032953;28;20049;-69
2023/02/22 09:46:22;;;;;;;55.17;35.03;;;8.10;99.90;;;8.04;100.00;101030.25;5032117;28;20464;-70
2023/02/22 09:49:05;;;;;;;58.28;34.72;;;8.00;99.90;;;7.99;100.00;101034.59;5033121;28;20041;-69
2023/02/22 09:51:48;;;;;;;57.28;33.30;;;7.90;99.90;;;8.19;100.00;101021.59;5032870;28;20045;-70
2023/02/22 09:54:23;;;;;;;59.17;34.92;;;8.00;99.90;;;8.14;100.00;101016.31;5031711;28;20049;-70
2023/02/22 09:56:57;;;;;;;56.80;32.17;;;8.00;99.90;;;8.23;100.00;101014.63;5032994;28;20034;-71
2023/02/22 09:59:30;;;;;;;52.42;30.85;;;8.00;99.90;;;8.32;100.00;101046.31;5032754;28;20116;-71
2023/02/22 10:02:10;;;;;;;48.95;30.55;;;8.20;99.90;;;8.50;100.00;101038.53;5032793;28;20068;-71
2023/02/22 10:04:44;;;;;;;49.30;30.00;;;8.30;99.90;;;8.47;100.00;101055.22;5032761;28;20171;-71
2023/02/22 10:07:24;;;;;;;46.30;28.85;;;8.40;99.90;;;8.41;100.00;101047.28;5032742;28;20061;-71
2023/02/22 10:09:55;;;;;;;51.70;29.73;;;8.40;99.90;;;8.42;100.00;101048.16;5032633;28;20045;-71
2023/02/22 10:12:29;;;;;;;;;;;8.40;99.90;;;8.42;100.00;101049.03;5032894;28;20055;-71
2023/02/22 10:15:28;;;;;;;51.92;30.23;;;8.40;99.90;;;8.30;100.00;101043.69;5032889;28;19928;-71
2023/02/22 10:18:18;;;;;;;47.05;28.60;;;8.30;99.90;;;8.45;100.00;101053.44;5026804;28;20136;-68
2023/02/22 10:20:54;;;;;;;46.53;29.53;;;8.30;99.90;;;8.52;100.00;101052.59;5032658;28;20049;-68
2023/02/22 10:23:33;;;;;;;47.70;28.92;;;8.50;99.90;;;8.46;100.00;101057.84;5032196;28;20303;-68